Terminal Aerodrome Forecast
Issued by NWS

Home | Current Version | Previous Version | Text Only | Print | Product List | Glossary On
Versions: 1 2 3 4 5 6 7 8 9 10 11 12 13 14 15 16 17 18 19 20 21
801
FTUS41 KRLX 120531
TAFCKB
TAF
KCKB 120531Z 1206/1306 00000KT P6SM BKN250
     FM121600 28005KT 3SM -SN OVC030
     FM121800 26007KT 2SM -SN OVC015
     FM130100 27011G21KT 3SM -SHSN OVC025
     FM130200 29014G25KT 2SM -SHSN OVC020=

USA.gov is the U.S. government's official web portal to all federal, state and local government web resources and services.